createdAt,value
2024-04-06T00:00:35.406Z,15.64
2024-04-06T00:03:02.249Z,15.62
2024-04-06T00:05:29.088Z,15.61
2024-04-06T00:08:05.957Z,15.60
2024-04-06T00:10:40.432Z,15.58
2024-04-06T00:13:07.178Z,15.55
2024-04-06T00:15:34.054Z,15.55
2024-04-06T00:18:00.892Z,15.56
2024-04-06T00:20:30.201Z,15.54
2024-04-06T00:22:57.177Z,15.56
2024-04-06T00:25:25.215Z,15.53
2024-04-06T00:27:51.970Z,15.55
2024-04-06T00:30:18.692Z,15.52
2024-04-06T00:32:45.485Z,15.49
2024-04-06T00:35:12.223Z,15.49
2024-04-06T00:37:39.170Z,15.52
2024-04-06T00:40:06.735Z,15.52
2024-04-06T00:42:33.746Z,15.49
2024-04-06T00:45:01.135Z,15.48
2024-04-06T00:47:28.010Z,15.47
2024-04-06T00:49:54.983Z,15.43
2024-04-06T00:52:21.729Z,15.41
2024-04-06T00:54:48.482Z,15.43
2024-04-06T00:57:15.415Z,15.43
2024-04-06T00:59:42.749Z,15.44
2024-04-06T01:02:10.134Z,15.42
2024-04-06T01:04:36.887Z,15.42
2024-04-06T01:07:03.787Z,15.39
2024-04-06T01:09:30.778Z,15.36
2024-04-06T01:11:57.545Z,15.34
2024-04-06T01:14:24.391Z,15.38
2024-04-06T01:16:51.192Z,15.36
2024-04-06T01:19:17.881Z,15.34
2024-04-06T01:21:44.672Z,15.29
2024-04-06T01:24:44.020Z,15.25
2024-04-06T01:27:10.868Z,15.27
2024-04-06T01:29:37.624Z,15.25
2024-04-06T01:32:04.732Z,15.23
2024-04-06T01:34:31.569Z,15.20
2024-04-06T01:36:58.332Z,15.12
2024-04-06T01:39:25.097Z,15.10
2024-04-06T01:41:51.949Z,15.08
2024-04-06T01:44:18.731Z,15.02
2024-04-06T01:46:45.456Z,15.07
2024-04-06T01:49:12.267Z,15.04
2024-04-06T01:51:39.269Z,14.98
2024-04-06T01:54:06.032Z,14.94
2024-04-06T01:56:32.769Z,14.90
2024-04-06T01:58:59.519Z,14.90
2024-04-06T02:01:26.243Z,14.92
2024-04-06T02:03:53.066Z,14.89
2024-04-06T02:06:20.451Z,14.82
2024-04-06T02:08:47.209Z,14.84
2024-04-06T02:11:14.025Z,14.89
2024-04-06T02:13:41.299Z,14.89
2024-04-06T02:16:08.363Z,14.88
2024-04-06T02:18:35.224Z,14.87
2024-04-06T02:21:02.176Z,14.86
2024-04-06T02:23:29.076Z,14.84
2024-04-06T02:25:56.040Z,14.84
2024-04-06T02:28:22.746Z,14.85
2024-04-06T02:30:49.562Z,14.90
2024-04-06T02:33:16.464Z,14.92
2024-04-06T02:35:43.302Z,14.89
2024-04-06T02:38:10.116Z,14.90
2024-04-06T02:40:36.933Z,14.92
2024-04-06T02:43:03.894Z,14.86
2024-04-06T02:45:30.784Z,14.83
2024-04-06T02:47:57.533Z,14.82
2024-04-06T02:50:24.299Z,14.84
2024-04-06T02:52:51.072Z,14.80
2024-04-06T02:55:17.901Z,14.73
2024-04-06T02:57:44.721Z,14.68
2024-04-06T03:00:14.044Z,14.63
2024-04-06T03:02:40.801Z,14.66
2024-04-06T03:05:08.092Z,14.68
2024-04-06T03:07:35.228Z,14.67
2024-04-06T03:10:01.974Z,14.68
2024-04-06T03:12:28.692Z,14.67
2024-04-06T03:14:55.481Z,14.63
2024-04-06T03:17:22.354Z,14.60
2024-04-06T03:19:49.307Z,14.59
2024-04-06T03:22:16.061Z,14.60
2024-04-06T03:24:42.814Z,14.55
2024-04-06T03:27:09.617Z,14.56
2024-04-06T03:29:36.415Z,14.53
2024-04-06T03:32:03.313Z,14.49
2024-04-06T03:34:30.103Z,14.45
2024-04-06T03:36:56.944Z,14.42
2024-04-06T03:39:23.677Z,14.39
2024-04-06T03:41:50.514Z,14.34
2024-04-06T03:44:17.284Z,14.33
2024-04-06T03:46:44.090Z,14.32
2024-04-06T03:49:10.810Z,14.31
2024-04-06T03:51:37.593Z,14.32
2024-04-06T03:54:04.342Z,14.27
2024-04-06T03:56:31.448Z,14.24
2024-04-06T03:58:58.269Z,14.17
2024-04-06T04:01:25.085Z,14.15
2024-04-06T04:03:51.875Z,14.15
2024-04-06T04:06:18.672Z,14.16
2024-04-06T04:08:45.472Z,14.14
2024-04-06T04:11:12.432Z,14.14
2024-04-06T04:13:39.203Z,14.12
2024-04-06T04:16:06.463Z,14.09
2024-04-06T04:18:33.436Z,14.06
2024-04-06T04:21:00.302Z,14.08
2024-04-06T04:23:27.197Z,14.08
2024-04-06T04:25:53.902Z,14.04
2024-04-06T04:28:20.931Z,14.01
2024-04-06T04:30:47.835Z,13.97
2024-04-06T04:33:14.704Z,13.91
2024-04-06T04:35:41.594Z,13.90
2024-04-06T04:38:08.708Z,13.95
2024-04-06T04:40:35.558Z,13.96
2024-04-06T04:43:02.331Z,13.94
2024-04-06T04:45:29.217Z,13.91
2024-04-06T04:47:56.185Z,13.92
2024-04-06T04:50:23.033Z,13.87
2024-04-06T04:52:51.548Z,13.84
2024-04-06T04:55:19.293Z,13.82
2024-04-06T04:57:46.086Z,13.83
2024-04-06T05:00:13.144Z,13.85
2024-04-06T05:02:39.965Z,13.84
2024-04-06T05:05:07.066Z,13.82
2024-04-06T05:07:34.009Z,13.84
2024-04-06T05:10:01.363Z,13.87
2024-04-06T05:12:29.537Z,13.89
2024-04-06T05:14:56.634Z,13.91
2024-04-06T05:17:23.520Z,13.93
2024-04-06T05:19:50.847Z,13.97
2024-04-06T05:22:17.818Z,13.98
2024-04-06T05:24:45.231Z,14.02
2024-04-06T05:27:12.226Z,14.07
2024-04-06T05:29:39.149Z,14.12
2024-04-06T05:32:06.732Z,14.17
2024-04-06T05:34:33.615Z,14.23
2024-04-06T05:37:00.393Z,14.30
2024-04-06T05:39:27.463Z,14.38
2024-04-06T05:41:54.327Z,14.48
2024-04-06T05:44:23.404Z,14.53
2024-04-06T05:46:53.224Z,14.62
2024-04-06T05:49:20.846Z,14.67
2024-04-06T05:51:47.760Z,14.73
2024-04-06T05:54:14.597Z,14.80
2024-04-06T05:56:42.638Z,14.85
2024-04-06T05:59:09.385Z,14.89
2024-04-06T06:01:36.266Z,14.87
2024-04-06T06:04:03.194Z,14.85
2024-04-06T06:06:30.096Z,14.87
2024-04-06T06:08:56.912Z,14.88
2024-04-06T06:11:23.772Z,14.85
2024-04-06T06:13:50.526Z,14.90
2024-04-06T06:16:17.375Z,14.96
2024-04-06T06:18:44.331Z,15.01
2024-04-06T06:21:11.222Z,15.08
2024-04-06T06:23:38.138Z,15.13
2024-04-06T06:26:05.625Z,15.23
2024-04-06T06:28:32.533Z,15.30
2024-04-06T06:31:01.262Z,15.37
2024-04-06T06:33:28.468Z,15.41
2024-04-06T06:38:27.678Z,15.50
2024-04-06T06:40:54.746Z,15.54
2024-04-06T06:43:21.825Z,15.57
2024-04-06T06:45:48.707Z,15.63
2024-04-06T06:48:15.617Z,15.63
2024-04-06T06:50:42.545Z,15.68
2024-04-06T06:53:09.467Z,15.76
2024-04-06T06:55:37.308Z,15.83
2024-04-06T06:58:04.325Z,15.89
2024-04-06T07:00:31.185Z,15.95
2024-04-06T07:02:57.987Z,16.00
2024-04-06T07:05:24.938Z,16.09
2024-04-06T07:07:56.577Z,16.15
2024-04-06T07:10:23.517Z,16.20
2024-04-06T07:12:50.475Z,16.27
2024-04-06T07:15:17.343Z,16.36
2024-04-06T07:17:44.265Z,16.44
2024-04-06T07:20:11.500Z,16.50
2024-04-06T07:22:40.711Z,16.59
2024-04-06T07:25:07.607Z,16.64
2024-04-06T07:27:34.468Z,16.72
2024-04-06T07:30:01.369Z,16.82
2024-04-06T07:32:28.387Z,16.91
2024-04-06T07:34:55.224Z,16.97
2024-04-06T07:37:22.387Z,17.06
2024-04-06T07:39:49.226Z,17.12
2024-04-06T07:42:16.214Z,17.21
2024-04-06T07:44:43.016Z,17.30
2024-04-06T07:47:09.913Z,17.38
2024-04-06T07:49:37.224Z,17.45
2024-04-06T07:52:04.282Z,17.53
2024-04-06T07:54:31.053Z,17.63
2024-04-06T07:56:57.885Z,17.70
2024-04-06T07:59:24.786Z,17.82
2024-04-06T08:01:51.607Z,17.96
2024-04-06T08:04:18.462Z,18.06
2024-04-06T08:06:45.390Z,18.22
2024-04-06T08:09:12.365Z,18.35
2024-04-06T08:11:39.251Z,18.43
2024-04-06T08:14:13.683Z,18.55
2024-04-06T08:16:47.496Z,18.63
2024-04-06T08:19:14.432Z,18.77
2024-04-06T08:21:41.311Z,18.93
2024-04-06T08:24:08.227Z,19.02
2024-04-06T08:26:35.056Z,19.18
2024-04-06T08:29:01.916Z,19.31
2024-04-06T08:31:28.787Z,19.43
2024-04-06T08:33:55.646Z,19.62
2024-04-06T08:36:22.492Z,19.70
2024-04-06T08:38:49.458Z,19.85
2024-04-06T08:41:18.015Z,19.95
2024-04-06T08:43:45.396Z,20.10
2024-04-06T08:46:12.462Z,20.23
2024-04-06T08:48:44.867Z,20.25
2024-04-06T08:51:13.376Z,20.31
2024-04-06T08:53:40.282Z,20.44
2024-04-06T08:56:12.133Z,20.55
2024-04-06T08:58:40.142Z,20.66
2024-04-06T09:01:08.163Z,20.85
2024-04-06T09:03:35.166Z,20.90
2024-04-06T09:06:02.058Z,21.02
2024-04-06T09:08:28.914Z,21.21
2024-04-06T09:11:07.564Z,21.36
2024-04-06T09:13:34.525Z,21.54
2024-04-06T09:16:01.484Z,21.66
2024-04-06T09:18:30.731Z,21.80
2024-04-06T09:20:58.535Z,22.00
2024-04-06T09:23:25.395Z,22.31
2024-04-06T09:26:03.590Z,22.53
2024-04-06T09:28:31.455Z,22.79
2024-04-06T09:30:59.580Z,23.22
2024-04-06T09:33:27.924Z,23.61
2024-04-06T09:35:54.796Z,23.70
2024-04-06T09:38:23.989Z,23.60
2024-04-06T09:40:54.340Z,23.30
2024-04-06T09:43:21.951Z,23.39
2024-04-06T09:45:49.655Z,23.62
2024-04-06T09:48:18.932Z,23.83
2024-04-06T09:50:47.705Z,24.00
2024-04-06T09:53:15.852Z,24.05
2024-04-06T09:55:43.939Z,24.05
2024-04-06T09:58:10.820Z,24.39
2024-04-06T10:00:37.703Z,24.88
2024-04-06T10:03:05.247Z,25.32
2024-04-06T10:05:39.725Z,25.49
2024-04-06T10:08:08.251Z,24.93
2024-04-06T10:10:35.154Z,25.04
2024-04-06T10:13:05.512Z,25.73
2024-04-06T10:15:32.945Z,25.93
2024-04-06T10:18:00.538Z,25.39
2024-04-06T10:20:29.268Z,25.22
2024-04-06T10:22:59.542Z,25.15
2024-04-06T10:25:37.923Z,25.52
2024-04-06T10:28:06.581Z,25.72
2024-04-06T10:30:35.455Z,25.65
2024-04-06T10:33:02.350Z,26.27
2024-04-06T10:35:29.273Z,26.65
2024-04-06T10:37:56.548Z,26.07
2024-04-06T10:40:25.006Z,25.31
2024-04-06T10:42:52.050Z,24.88
2024-04-06T10:45:19.014Z,24.80
2024-04-06T10:47:46.533Z,25.45
2024-04-06T10:50:13.844Z,26.03
2024-04-06T10:52:43.703Z,26.54
2024-04-06T10:55:11.544Z,26.87
2024-04-06T10:57:39.355Z,27.19
2024-04-06T11:00:10.212Z,27.69
2024-04-06T11:02:41.140Z,28.13
2024-04-06T11:05:12.077Z,28.56
2024-04-06T11:07:40.118Z,29.05
2024-04-06T11:10:11.462Z,29.85
2024-04-06T11:12:39.909Z,30.14
2024-04-06T11:15:10.906Z,30.86
2024-04-06T11:17:38.615Z,31.32
2024-04-06T11:20:07.641Z,31.65
2024-04-06T11:22:39.387Z,31.86
2024-04-06T11:25:06.589Z,32.21
2024-04-06T11:27:33.424Z,32.56
2024-04-06T11:30:03.308Z,32.78
2024-04-06T11:32:31.937Z,32.97
2024-04-06T11:34:58.793Z,33.29
2024-04-06T11:37:25.916Z,33.72
2024-04-06T11:39:52.900Z,33.72
2024-04-06T11:42:19.956Z,33.71
2024-04-06T11:44:46.943Z,34.32
2024-04-06T11:47:13.930Z,34.97
2024-04-06T11:49:40.896Z,35.44
2024-04-06T11:52:07.781Z,35.04
2024-04-06T11:54:34.604Z,35.02
2024-04-06T11:57:01.929Z,35.07
2024-04-06T11:59:28.956Z,34.96
2024-04-06T12:01:55.913Z,35.26
2024-04-06T12:04:23.072Z,35.50
2024-04-06T12:06:50.125Z,36.01
2024-04-06T12:09:17.526Z,36.47
2024-04-06T12:11:44.453Z,36.92
2024-04-06T12:14:11.332Z,36.68
2024-04-06T12:16:38.220Z,36.66
2024-04-06T12:19:05.256Z,36.86
2024-04-06T12:21:31.996Z,37.23
2024-04-06T12:23:58.909Z,37.81
2024-04-06T12:26:26.047Z,37.94
2024-04-06T12:28:53.183Z,38.23
2024-04-06T12:31:20.476Z,38.65
2024-04-06T12:33:47.419Z,38.72
2024-04-06T12:36:14.585Z,38.70
2024-04-06T12:38:41.692Z,38.87
2024-04-06T12:41:09.166Z,38.80
2024-04-06T12:43:36.073Z,39.17
2024-04-06T12:46:03.208Z,39.17
2024-04-06T12:48:30.135Z,39.57
2024-04-06T12:50:57.195Z,40.41
2024-04-06T12:53:23.982Z,40.90
2024-04-06T12:55:51.052Z,41.24
2024-04-06T12:58:18.306Z,41.80
2024-04-06T13:00:45.211Z,42.23
2024-04-06T13:03:12.203Z,42.56
2024-04-06T13:05:39.108Z,43.32
2024-04-06T13:08:06.287Z,43.67
2024-04-06T13:10:33.187Z,44.06
2024-04-06T13:13:00.063Z,43.92
2024-04-06T13:15:26.949Z,43.29
2024-04-06T13:17:53.846Z,43.00
2024-04-06T13:20:21.851Z,43.25
2024-04-06T13:22:49.650Z,43.86
2024-04-06T13:25:16.700Z,43.78
2024-04-06T13:27:44.136Z,43.71
2024-04-06T13:30:12.405Z,43.86
2024-04-06T13:32:39.392Z,44.30
2024-04-06T13:35:07.882Z,44.74
2024-04-06T13:37:35.409Z,45.02
2024-04-06T13:40:09.026Z,44.75
2024-04-06T13:42:39.483Z,44.66
2024-04-06T13:45:09.670Z,43.97
2024-04-06T13:47:37.505Z,43.36
2024-04-06T13:50:04.743Z,43.12
2024-04-06T13:52:31.931Z,43.27
2024-04-06T13:54:58.794Z,43.35
2024-04-06T13:57:25.665Z,42.93
2024-04-06T13:59:52.631Z,42.73
2024-04-06T14:02:19.412Z,42.75
2024-04-06T14:04:46.258Z,42.82
2024-04-06T14:07:16.093Z,42.84
2024-04-06T14:09:43.242Z,42.66
2024-04-06T14:12:10.371Z,42.89
2024-04-06T14:14:37.236Z,42.68
2024-04-06T14:17:04.657Z,42.38
2024-04-06T14:19:33.732Z,41.92
2024-04-06T14:22:01.220Z,41.34
2024-04-06T14:24:27.961Z,40.97
2024-04-06T14:26:56.894Z,40.72
2024-04-06T14:29:23.757Z,39.79
2024-04-06T14:31:50.685Z,39.05
2024-04-06T14:34:17.607Z,38.97
2024-04-06T14:36:53.066Z,38.34
2024-04-06T14:39:20.296Z,38.10
2024-04-06T14:41:47.351Z,38.19
2024-04-06T14:44:14.335Z,37.90
2024-04-06T14:46:41.253Z,37.18
2024-04-06T14:49:08.551Z,36.99
2024-04-06T14:51:35.400Z,36.85
2024-04-06T14:54:02.341Z,36.78
2024-04-06T14:56:29.309Z,36.88
2024-04-06T14:58:56.203Z,37.00
2024-04-06T15:01:23.132Z,36.55
2024-04-06T15:03:49.944Z,35.72
2024-04-06T15:06:16.858Z,35.17
2024-04-06T15:08:43.817Z,35.25
2024-04-06T15:11:10.666Z,35.44
2024-04-06T15:13:37.505Z,35.34
2024-04-06T15:16:04.666Z,34.74
2024-04-06T15:18:34.118Z,34.15
2024-04-06T15:21:04.465Z,33.22
2024-04-06T15:23:31.295Z,32.64
2024-04-06T15:25:58.095Z,32.19
2024-04-06T15:28:24.916Z,31.73
2024-04-06T15:30:51.794Z,31.41
2024-04-06T15:33:18.656Z,31.12
2024-04-06T15:35:45.568Z,30.91
2024-04-06T15:38:12.464Z,30.73
2024-04-06T15:40:39.592Z,30.59
2024-04-06T15:43:06.618Z,30.62
2024-04-06T15:45:33.603Z,30.62
2024-04-06T15:48:00.561Z,30.81
2024-04-06T15:50:27.556Z,31.01
2024-04-06T15:52:55.516Z,30.83
2024-04-06T15:55:22.485Z,30.65
2024-04-06T15:57:49.547Z,30.67
2024-04-06T16:00:16.535Z,30.61
2024-04-06T16:02:43.484Z,30.75
2024-04-06T16:05:10.323Z,30.54
2024-04-06T16:07:37.225Z,30.26
2024-04-06T16:10:05.137Z,29.98
2024-04-06T16:12:32.042Z,29.91
2024-04-06T16:14:59.154Z,29.93
2024-04-06T16:17:26.165Z,29.93
2024-04-06T16:19:53.242Z,29.67
2024-04-06T16:22:20.284Z,29.31
2024-04-06T16:24:48.331Z,28.93
2024-04-06T16:27:15.784Z,28.65
2024-04-06T16:29:42.794Z,28.39
2024-04-06T16:32:10.306Z,28.18
2024-04-06T16:34:37.324Z,28.04
2024-04-06T16:37:04.737Z,27.83
2024-04-06T16:39:32.585Z,27.64
2024-04-06T16:41:59.648Z,27.48
2024-04-06T16:44:26.545Z,27.36
2024-04-06T16:46:53.440Z,27.25
2024-04-06T16:49:20.542Z,27.15
2024-04-06T16:51:47.517Z,27.07
2024-04-06T16:54:14.284Z,26.89
2024-04-06T16:56:41.147Z,26.77
2024-04-06T16:59:07.996Z,26.64
2024-04-06T17:01:35.108Z,26.58
2024-04-06T17:04:01.867Z,26.47
2024-04-06T17:06:28.759Z,26.33
2024-04-06T17:08:55.623Z,26.28
2024-04-06T17:11:22.515Z,26.22
2024-04-06T17:13:49.615Z,26.12
2024-04-06T17:16:17.048Z,26.04
2024-04-06T17:18:44.445Z,25.93
2024-04-06T17:21:11.317Z,25.86
2024-04-06T17:23:38.361Z,25.82
2024-04-06T17:26:05.365Z,25.75
2024-04-06T17:28:32.329Z,25.71
2024-04-06T17:30:59.742Z,25.66
2024-04-06T17:33:26.631Z,25.58
2024-04-06T17:35:54.102Z,25.51
2024-04-06T17:38:20.906Z,25.47
2024-04-06T17:40:47.965Z,25.40
2024-04-06T17:43:15.096Z,25.30
2024-04-06T17:45:42.389Z,25.23
2024-04-06T17:48:09.567Z,25.17
2024-04-06T17:50:36.611Z,25.12
2024-04-06T17:53:03.630Z,25.04
2024-04-06T17:55:30.418Z,24.96
2024-04-06T17:57:57.412Z,24.92
2024-04-06T18:00:24.764Z,24.86
2024-04-06T18:02:51.576Z,24.78
2024-04-06T18:05:18.610Z,24.71
2024-04-06T18:07:45.497Z,24.63
2024-04-06T18:10:12.433Z,24.57
2024-04-06T18:12:39.410Z,24.49
2024-04-06T18:15:06.925Z,24.44
2024-04-06T18:17:33.844Z,24.39
2024-04-06T18:20:00.907Z,24.30
2024-04-06T18:22:28.570Z,24.24
2024-04-06T18:24:55.988Z,24.18
2024-04-06T18:27:22.844Z,24.13
2024-04-06T18:29:49.739Z,24.09
2024-04-06T18:32:17.284Z,24.04
2024-04-06T18:34:44.996Z,23.99
2024-04-06T18:37:13.830Z,23.93
2024-04-06T18:39:41.622Z,23.85
2024-04-06T18:42:08.594Z,23.80
2024-04-06T18:44:35.817Z,23.72
2024-04-06T18:47:02.691Z,23.66
2024-04-06T18:49:29.664Z,23.60
2024-04-06T18:51:56.963Z,23.56
2024-04-06T18:54:28.184Z,23.52
2024-04-06T18:56:55.431Z,23.48
2024-04-06T18:59:22.289Z,23.44
2024-04-06T19:01:49.172Z,23.41
2024-04-06T19:04:17.062Z,23.36
2024-04-06T19:06:44.613Z,23.31
2024-04-06T19:09:11.483Z,23.26
2024-04-06T19:11:38.549Z,23.22
2024-04-06T19:14:05.356Z,23.18
2024-04-06T19:16:34.522Z,23.14
2024-04-06T19:19:01.374Z,23.11
2024-04-06T19:21:28.352Z,23.07
2024-04-06T19:23:55.261Z,23.02
2024-04-06T19:26:22.174Z,22.97
2024-04-06T19:28:49.243Z,22.92
2024-04-06T19:31:16.058Z,22.90
2024-04-06T19:33:42.886Z,22.86
2024-04-06T19:36:09.679Z,22.82
2024-04-06T19:38:36.497Z,22.75
2024-04-06T19:41:04.339Z,22.69
2024-04-06T19:43:31.256Z,22.62
2024-04-06T19:45:58.147Z,22.57
2024-04-06T19:48:25.109Z,22.52
2024-04-06T19:50:51.956Z,22.41
2024-04-06T19:53:18.730Z,22.33
2024-04-06T19:55:45.603Z,22.26
2024-04-06T19:58:12.468Z,22.10
2024-04-06T20:00:39.453Z,21.95
2024-04-06T20:03:08.212Z,21.88
2024-04-06T20:05:36.224Z,21.87
2024-04-06T20:08:03.202Z,21.86
2024-04-06T20:10:30.308Z,21.81
2024-04-06T20:12:57.140Z,21.79
2024-04-06T20:15:23.993Z,21.76
2024-04-06T20:17:50.958Z,21.74
2024-04-06T20:20:18.015Z,21.69
2024-04-06T20:23:03.722Z,21.69
2024-04-06T20:25:50.866Z,21.66
2024-04-06T20:28:17.925Z,21.62
2024-04-06T20:30:44.906Z,21.60
2024-04-06T20:33:11.788Z,21.63
2024-04-06T20:35:38.615Z,21.68
2024-04-06T20:38:07.042Z,21.70
2024-04-06T20:40:34.713Z,21.72
2024-04-06T20:43:02.287Z,21.73
2024-04-06T20:45:29.178Z,21.72
2024-04-06T20:47:56.025Z,21.68
2024-04-06T20:50:23.165Z,21.67
2024-04-06T20:52:50.031Z,21.66
2024-04-06T20:55:16.945Z,21.66
2024-04-06T20:57:44.032Z,21.65
2024-04-06T21:00:11.856Z,21.64
2024-04-06T21:02:41.819Z,21.63
2024-04-06T21:05:08.759Z,21.58
2024-04-06T21:07:38.006Z,21.55
2024-04-06T21:10:05.369Z,21.51
2024-04-06T21:12:32.516Z,21.50
2024-04-06T21:15:07.574Z,21.49
2024-04-06T21:17:34.608Z,21.47
2024-04-06T21:20:03.734Z,21.47
2024-04-06T21:22:31.109Z,21.47
2024-04-06T21:24:58.005Z,21.46
2024-04-06T21:27:24.854Z,21.44
2024-04-06T21:29:53.221Z,21.40
2024-04-06T21:32:20.640Z,21.38
2024-04-06T21:34:47.513Z,21.36
2024-04-06T21:37:14.367Z,21.33
2024-04-06T21:39:41.278Z,21.30
2024-04-06T21:42:08.616Z,21.28
2024-04-06T21:44:35.473Z,21.25
2024-04-06T21:47:02.399Z,21.22
2024-04-06T21:49:29.288Z,21.18
2024-04-06T21:51:56.186Z,21.16
2024-04-06T21:54:24.867Z,21.14
2024-04-06T21:56:51.790Z,21.08
2024-04-06T21:59:18.606Z,21.03
2024-04-06T22:01:45.456Z,20.99
2024-04-06T22:04:12.879Z,20.95
2024-04-06T22:06:39.841Z,20.89
2024-04-06T22:09:06.993Z,20.82
2024-04-06T22:11:33.929Z,20.78
2024-04-06T22:14:00.989Z,20.71
2024-04-06T22:16:29.544Z,20.67
2024-04-06T22:18:56.332Z,20.67
2024-04-06T22:21:23.264Z,20.68
2024-04-06T22:23:50.306Z,20.63
2024-04-06T22:26:17.225Z,20.66
2024-04-06T22:28:44.076Z,20.65
2024-04-06T22:31:11.645Z,20.60
2024-04-06T22:33:38.444Z,20.25
2024-04-06T22:36:05.399Z,19.95
2024-04-06T22:38:32.412Z,19.69
2024-04-06T22:41:00.130Z,19.59
2024-04-06T22:43:27.719Z,19.58
2024-04-06T22:45:54.593Z,19.66
2024-04-06T22:48:21.508Z,19.70
2024-04-06T22:50:48.384Z,19.72
2024-04-06T22:53:15.239Z,19.78
2024-04-06T22:55:42.252Z,19.73
2024-04-06T22:58:09.172Z,19.70
2024-04-06T23:00:36.139Z,19.73
2024-04-06T23:03:03.082Z,19.80
2024-04-06T23:05:29.981Z,19.88
2024-04-06T23:07:56.911Z,19.94
2024-04-06T23:10:23.741Z,19.98
2024-04-06T23:12:53.756Z,20.01
2024-04-06T23:15:20.594Z,20.04
2024-04-06T23:17:48.089Z,20.03
2024-04-06T23:20:14.939Z,20.03
2024-04-06T23:22:41.848Z,20.03
2024-04-06T23:25:08.787Z,20.05
2024-04-06T23:27:35.654Z,19.99
2024-04-06T23:30:03.618Z,19.97
2024-04-06T23:32:30.550Z,19.98
2024-04-06T23:34:57.422Z,20.01
2024-04-06T23:37:24.264Z,20.01
2024-04-06T23:39:51.349Z,20.04
2024-04-06T23:42:18.290Z,20.06
2024-04-06T23:44:45.755Z,20.11
2024-04-06T23:47:13.013Z,20.13
2024-04-06T23:49:40.937Z,20.12
2024-04-06T23:52:07.942Z,20.14
2024-04-06T23:54:35.554Z,20.14
2024-04-06T23:57:02.631Z,20.11
2024-04-06T23:59:29.493Z,20.05
